sensor_id;sensor_type;location;lat;lon;timestamp;P1;durP1;ratioP1;P2;durP2;ratioP2
23317;SDS011;11831;55.918;37.746;2024-01-15T00:01:12;15.85;;;8.75;;
23317;SDS011;11831;55.918;37.746;2024-01-15T00:03:38;14.70;;;8.13;;
23317;SDS011;11831;55.918;37.746;2024-01-15T00:06:05;13.40;;;8.55;;
23317;SDS011;11831;55.918;37.746;2024-01-15T00:08:32;13.25;;;8.18;;
23317;SDS011;11831;55.918;37.746;2024-01-15T00:10:58;12.68;;;8.10;;
23317;SDS011;11831;55.918;37.746;2024-01-15T00:13:25;15.05;;;8.10;;
23317;SDS011;11831;55.918;37.746;2024-01-15T00:15:51;12.95;;;8.32;;
23317;SDS011;11831;55.918;37.746;2024-01-15T00:18:18;13.80;;;8.20;;
23317;SDS011;11831;55.918;37.746;2024-01-15T00:20:45;11.40;;;7.22;;
23317;SDS011;11831;55.918;37.746;2024-01-15T00:23:11;12.75;;;7.40;;
23317;SDS011;11831;55.918;37.746;2024-01-15T00:25:38;15.85;;;7.55;;
23317;SDS011;11831;55.918;37.746;2024-01-15T00:28:04;13.73;;;8.07;;
23317;SDS011;11831;55.918;37.746;2024-01-15T00:30:31;16.23;;;8.75;;
23317;SDS011;11831;55.918;37.746;2024-01-15T00:32:58;11.73;;;7.03;;
23317;SDS011;11831;55.918;37.746;2024-01-15T00:35:24;14.38;;;7.78;;
23317;SDS011;11831;55.918;37.746;2024-01-15T00:37:51;11.27;;;7.32;;
23317;SDS011;11831;55.918;37.746;2024-01-15T00:40:17;14.23;;;8.20;;
23317;SDS011;11831;55.918;37.746;2024-01-15T00:42:44;12.18;;;7.37;;
23317;SDS011;11831;55.918;37.746;2024-01-15T00:45:11;11.43;;;6.90;;
23317;SDS011;11831;55.918;37.746;2024-01-15T00:47:37;11.30;;;6.72;;
23317;SDS011;11831;55.918;37.746;2024-01-15T00:50:04;14.40;;;8.35;;
23317;SDS011;11831;55.918;37.746;2024-01-15T00:52:31;14.70;;;8.45;;
23317;SDS011;11831;55.918;37.746;2024-01-15T00:54:58;12.57;;;8.23;;
23317;SDS011;11831;55.918;37.746;2024-01-15T00:57:25;13.45;;;8.18;;
23317;SDS011;11831;55.918;37.746;2024-01-15T00:59:51;14.05;;;8.45;;
23317;SDS011;11831;55.918;37.746;2024-01-15T01:02:18;15.52;;;8.63;;
23317;SDS011;11831;55.918;37.746;2024-01-15T01:04:45;12.63;;;8.75;;
23317;SDS011;11831;55.918;37.746;2024-01-15T01:07:12;12.27;;;8.02;;
23317;SDS011;11831;55.918;37.746;2024-01-15T01:09:38;13.90;;;7.78;;
23317;SDS011;11831;55.918;37.746;2024-01-15T01:12:05;13.88;;;7.97;;
23317;SDS011;11831;55.918;37.746;2024-01-15T01:14:32;12.60;;;8.15;;
23317;SDS011;11831;55.918;37.746;2024-01-15T01:16:58;14.02;;;8.65;;
23317;SDS011;11831;55.918;37.746;2024-01-15T01:19:25;15.80;;;8.77;;
23317;SDS011;11831;55.918;37.746;2024-01-15T01:21:51;17.02;;;8.95;;
23317;SDS011;11831;55.918;37.746;2024-01-15T01:24:18;14.23;;;8.77;;
23317;SDS011;11831;55.918;37.746;2024-01-15T01:26:45;15.43;;;8.98;;
23317;SDS011;11831;55.918;37.746;2024-01-15T01:29:12;16.08;;;9.40;;
23317;SDS011;11831;55.918;37.746;2024-01-15T01:31:47;16.05;;;9.82;;
23317;SDS011;11831;55.918;37.746;2024-01-15T01:34:15;14.07;;;9.05;;
23317;SDS011;11831;55.918;37.746;2024-01-15T01:36:42;16.20;;;9.60;;
23317;SDS011;11831;55.918;37.746;2024-01-15T01:39:09;16.20;;;9.00;;
23317;SDS011;11831;55.918;37.746;2024-01-15T01:41:37;15.93;;;9.45;;
23317;SDS011;11831;55.918;37.746;2024-01-15T01:44:04;12.70;;;7.70;;
23317;SDS011;11831;55.918;37.746;2024-01-15T01:46:31;15.57;;;8.77;;
23317;SDS011;11831;55.918;37.746;2024-01-15T01:48:58;13.75;;;8.80;;
23317;SDS011;11831;55.918;37.746;2024-01-15T01:51:27;14.13;;;8.68;;
23317;SDS011;11831;55.918;37.746;2024-01-15T01:53:54;14.52;;;9.10;;
23317;SDS011;11831;55.918;37.746;2024-01-15T01:56:21;13.80;;;8.82;;
23317;SDS011;11831;55.918;37.746;2024-01-15T01:58:48;14.38;;;9.05;;
23317;SDS011;11831;55.918;37.746;2024-01-15T02:01:15;14.35;;;8.82;;
23317;SDS011;11831;55.918;37.746;2024-01-15T02:03:42;14.40;;;9.60;;
23317;SDS011;11831;55.918;37.746;2024-01-15T02:06:09;17.02;;;9.38;;
23317;SDS011;11831;55.918;37.746;2024-01-15T02:08:36;14.77;;;9.35;;
23317;SDS011;11831;55.918;37.746;2024-01-15T02:11:03;14.27;;;8.68;;
23317;SDS011;11831;55.918;37.746;2024-01-15T02:13:30;15.52;;;8.73;;
23317;SDS011;11831;55.918;37.746;2024-01-15T02:15:57;14.43;;;9.05;;
23317;SDS011;11831;55.918;37.746;2024-01-15T02:18:24;15.50;;;9.35;;
23317;SDS011;11831;55.918;37.746;2024-01-15T02:21:11;15.18;;;9.27;;
23317;SDS011;11831;55.918;37.746;2024-01-15T02:23:38;13.82;;;9.20;;
23317;SDS011;11831;55.918;37.746;2024-01-15T02:26:05;14.13;;;8.57;;
23317;SDS011;11831;55.918;37.746;2024-01-15T02:28:32;14.55;;;9.43;;
23317;SDS011;11831;55.918;37.746;2024-01-15T02:30:59;15.52;;;9.40;;
23317;SDS011;11831;55.918;37.746;2024-01-15T02:33:26;13.85;;;8.68;;
23317;SDS011;11831;55.918;37.746;2024-01-15T02:35:53;12.35;;;8.82;;
23317;SDS011;11831;55.918;37.746;2024-01-15T02:38:19;14.23;;;9.35;;
23317;SDS011;11831;55.918;37.746;2024-01-15T02:40:46;14.52;;;9.38;;
23317;SDS011;11831;55.918;37.746;2024-01-15T02:43:13;13.85;;;8.95;;
23317;SDS011;11831;55.918;37.746;2024-01-15T02:45:40;16.42;;;9.93;;
23317;SDS011;11831;55.918;37.746;2024-01-15T02:48:07;14.40;;;9.40;;
23317;SDS011;11831;55.918;37.746;2024-01-15T02:50:33;15.02;;;9.57;;
23317;SDS011;11831;55.918;37.746;2024-01-15T02:53:00;14.75;;;9.63;;
23317;SDS011;11831;55.918;37.746;2024-01-15T02:55:26;14.25;;;9.25;;
23317;SDS011;11831;55.918;37.746;2024-01-15T02:57:55;15.00;;;9.32;;
23317;SDS011;11831;55.918;37.746;2024-01-15T03:00:22;18.48;;;10.02;;
23317;SDS011;11831;55.918;37.746;2024-01-15T03:02:49;14.73;;;9.70;;
23317;SDS011;11831;55.918;37.746;2024-01-15T03:05:17;14.43;;;9.52;;
23317;SDS011;11831;55.918;37.746;2024-01-15T03:07:44;15.30;;;10.68;;
23317;SDS011;11831;55.918;37.746;2024-01-15T03:10:10;15.95;;;9.90;;
23317;SDS011;11831;55.918;37.746;2024-01-15T03:12:37;15.25;;;9.85;;
23317;SDS011;11831;55.918;37.746;2024-01-15T03:15:03;16.62;;;10.70;;
23317;SDS011;11831;55.918;37.746;2024-01-15T03:17:31;16.15;;;10.50;;
23317;SDS011;11831;55.918;37.746;2024-01-15T03:19:58;15.73;;;10.20;;
23317;SDS011;11831;55.918;37.746;2024-01-15T03:22:25;15.15;;;10.10;;
23317;SDS011;11831;55.918;37.746;2024-01-15T03:24:52;19.95;;;10.48;;
23317;SDS011;11831;55.918;37.746;2024-01-15T03:27:18;15.05;;;10.48;;
23317;SDS011;11831;55.918;37.746;2024-01-15T03:29:45;16.70;;;10.20;;
23317;SDS011;11831;55.918;37.746;2024-01-15T03:32:12;16.50;;;9.25;;
23317;SDS011;11831;55.918;37.746;2024-01-15T03:34:39;17.33;;;10.52;;
23317;SDS011;11831;55.918;37.746;2024-01-15T03:37:05;18.60;;;10.65;;
23317;SDS011;11831;55.918;37.746;2024-01-15T03:39:32;16.73;;;10.57;;
23317;SDS011;11831;55.918;37.746;2024-01-15T03:41:58;16.92;;;11.12;;
23317;SDS011;11831;55.918;37.746;2024-01-15T03:44:25;16.23;;;9.57;;
23317;SDS011;11831;55.918;37.746;2024-01-15T03:46:51;16.40;;;10.57;;
23317;SDS011;11831;55.918;37.746;2024-01-15T03:49:18;15.38;;;10.32;;
23317;SDS011;11831;55.918;37.746;2024-01-15T03:51:45;16.98;;;11.18;;
23317;SDS011;11831;55.918;37.746;2024-01-15T03:54:12;16.48;;;10.65;;
23317;SDS011;11831;55.918;37.746;2024-01-15T03:56:38;14.20;;;10.02;;
23317;SDS011;11831;55.918;37.746;2024-01-15T03:59:05;18.65;;;11.40;;
23317;SDS011;11831;55.918;37.746;2024-01-15T04:01:31;18.52;;;10.85;;
23317;SDS011;11831;55.918;37.746;2024-01-15T04:03:58;19.25;;;10.45;;
23317;SDS011;11831;55.918;37.746;2024-01-15T04:06:24;18.83;;;11.43;;
23317;SDS011;11831;55.918;37.746;2024-01-15T04:08:51;16.45;;;11.18;;
23317;SDS011;11831;55.918;37.746;2024-01-15T04:11:17;18.10;;;11.30;;
23317;SDS011;11831;55.918;37.746;2024-01-15T04:13:44;15.70;;;10.80;;
23317;SDS011;11831;55.918;37.746;2024-01-15T04:16:11;18.15;;;10.88;;
23317;SDS011;11831;55.918;37.746;2024-01-15T04:18:37;19.85;;;11.27;;
23317;SDS011;11831;55.918;37.746;2024-01-15T04:21:04;19.55;;;12.20;;
23317;SDS011;11831;55.918;37.746;2024-01-15T04:23:32;20.62;;;11.65;;
23317;SDS011;11831;55.918;37.746;2024-01-15T04:25:59;18.60;;;11.45;;
23317;SDS011;11831;55.918;37.746;2024-01-15T04:28:26;17.75;;;11.48;;
23317;SDS011;11831;55.918;37.746;2024-01-15T04:30:52;17.25;;;10.90;;
23317;SDS011;11831;55.918;37.746;2024-01-15T04:33:19;15.98;;;11.30;;
23317;SDS011;11831;55.918;37.746;2024-01-15T04:35:45;19.05;;;11.48;;
23317;SDS011;11831;55.918;37.746;2024-01-15T04:38:11;16.60;;;10.75;;
23317;SDS011;11831;55.918;37.746;2024-01-15T04:40:37;18.33;;;12.05;;
23317;SDS011;11831;55.918;37.746;2024-01-15T04:43:04;16.77;;;11.12;;
23317;SDS011;11831;55.918;37.746;2024-01-15T04:45:30;17.50;;;11.18;;
23317;SDS011;11831;55.918;37.746;2024-01-15T04:47:57;17.62;;;11.73;;
23317;SDS011;11831;55.918;37.746;2024-01-15T04:50:23;18.80;;;12.02;;
23317;SDS011;11831;55.918;37.746;2024-01-15T04:52:50;17.05;;;11.00;;
23317;SDS011;11831;55.918;37.746;2024-01-15T04:55:17;16.58;;;11.68;;
23317;SDS011;11831;55.918;37.746;2024-01-15T04:57:44;17.77;;;11.18;;
23317;SDS011;11831;55.918;37.746;2024-01-15T05:00:11;18.90;;;11.70;;
23317;SDS011;11831;55.918;37.746;2024-01-15T05:02:39;19.58;;;11.55;;
23317;SDS011;11831;55.918;37.746;2024-01-15T05:05:05;18.70;;;11.73;;
23317;SDS011;11831;55.918;37.746;2024-01-15T05:07:32;17.37;;;11.93;;
23317;SDS011;11831;55.918;37.746;2024-01-15T05:09:58;19.87;;;12.70;;
23317;SDS011;11831;55.918;37.746;2024-01-15T05:12:25;19.87;;;12.10;;
23317;SDS011;11831;55.918;37.746;2024-01-15T05:14:51;19.30;;;12.02;;
23317;SDS011;11831;55.918;37.746;2024-01-15T05:17:17;21.35;;;12.48;;
23317;SDS011;11831;55.918;37.746;2024-01-15T05:19:44;18.85;;;11.82;;
23317;SDS011;11831;55.918;37.746;2024-01-15T05:22:10;19.42;;;11.85;;
23317;SDS011;11831;55.918;37.746;2024-01-15T05:24:37;18.25;;;11.80;;
23317;SDS011;11831;55.918;37.746;2024-01-15T05:27:03;18.83;;;11.93;;
23317;SDS011;11831;55.918;37.746;2024-01-15T05:29:30;17.55;;;11.88;;
23317;SDS011;11831;55.918;37.746;2024-01-15T05:31:56;19.02;;;11.95;;
23317;SDS011;11831;55.918;37.746;2024-01-15T05:34:22;18.83;;;12.30;;
23317;SDS011;11831;55.918;37.746;2024-01-15T05:36:49;18.05;;;11.98;;
23317;SDS011;11831;55.918;37.746;2024-01-15T05:39:15;19.80;;;12.25;;
23317;SDS011;11831;55.918;37.746;2024-01-15T05:41:42;20.00;;;12.88;;
23317;SDS011;11831;55.918;37.746;2024-01-15T05:44:08;18.37;;;12.52;;
23317;SDS011;11831;55.918;37.746;2024-01-15T05:46:35;20.37;;;12.95;;
23317;SDS011;11831;55.918;37.746;2024-01-15T05:49:02;21.98;;;12.98;;
23317;SDS011;11831;55.918;37.746;2024-01-15T05:51:28;20.23;;;12.95;;
23317;SDS011;11831;55.918;37.746;2024-01-15T05:53:55;22.70;;;14.15;;
23317;SDS011;11831;55.918;37.746;2024-01-15T05:56:21;19.90;;;13.13;;
23317;SDS011;11831;55.918;37.746;2024-01-15T05:58:47;20.80;;;13.52;;
23317;SDS011;11831;55.918;37.746;2024-01-15T06:01:14;19.08;;;12.77;;
23317;SDS011;11831;55.918;37.746;2024-01-15T06:03:40;22.90;;;13.32;;
23317;SDS011;11831;55.918;37.746;2024-01-15T06:06:08;23.20;;;13.52;;
23317;SDS011;11831;55.918;37.746;2024-01-15T06:08:35;23.38;;;13.98;;
23317;SDS011;11831;55.918;37.746;2024-01-15T06:11:01;21.48;;;13.18;;
23317;SDS011;11831;55.918;37.746;2024-01-15T06:13:29;21.42;;;14.10;;
23317;SDS011;11831;55.918;37.746;2024-01-15T06:15:55;19.23;;;13.43;;
23317;SDS011;11831;55.918;37.746;2024-01-15T06:18:21;22.62;;;14.77;;
23317;SDS011;11831;55.918;37.746;2024-01-15T06:20:48;21.62;;;13.30;;
23317;SDS011;11831;55.918;37.746;2024-01-15T06:23:14;18.95;;;12.73;;
23317;SDS011;11831;55.918;37.746;2024-01-15T06:25:41;22.37;;;13.62;;
23317;SDS011;11831;55.918;37.746;2024-01-15T06:28:07;21.20;;;12.98;;
23317;SDS011;11831;55.918;37.746;2024-01-15T06:30:33;20.62;;;13.02;;
23317;SDS011;11831;55.918;37.746;2024-01-15T06:33:01;22.27;;;13.90;;
23317;SDS011;11831;55.918;37.746;2024-01-15T06:35:27;20.23;;;14.07;;
23317;SDS011;11831;55.918;37.746;2024-01-15T06:37:53;23.85;;;14.75;;
23317;SDS011;11831;55.918;37.746;2024-01-15T06:40:20;23.60;;;14.63;;
23317;SDS011;11831;55.918;37.746;2024-01-15T06:42:46;22.95;;;13.98;;
23317;SDS011;11831;55.918;37.746;2024-01-15T06:45:13;20.60;;;13.68;;
23317;SDS011;11831;55.918;37.746;2024-01-15T06:47:39;21.35;;;13.85;;
23317;SDS011;11831;55.918;37.746;2024-01-15T06:50:06;20.45;;;14.18;;
23317;SDS011;11831;55.918;37.746;2024-01-15T06:52:32;19.83;;;13.75;;
23317;SDS011;11831;55.918;37.746;2024-01-15T06:54:59;22.60;;;13.98;;
23317;SDS011;11831;55.918;37.746;2024-01-15T06:57:25;22.25;;;14.10;;
23317;SDS011;11831;55.918;37.746;2024-01-15T06:59:52;22.92;;;14.55;;
23317;SDS011;11831;55.918;37.746;2024-01-15T07:02:18;20.40;;;14.77;;
23317;SDS011;11831;55.918;37.746;2024-01-15T07:04:45;22.73;;;12.95;;
23317;SDS011;11831;55.918;37.746;2024-01-15T07:07:11;22.95;;;14.75;;
23317;SDS011;11831;55.918;37.746;2024-01-15T07:09:37;23.20;;;14.43;;
23317;SDS011;11831;55.918;37.746;2024-01-15T07:12:04;25.25;;;14.63;;
23317;SDS011;11831;55.918;37.746;2024-01-15T07:14:30;21.67;;;12.68;;
23317;SDS011;11831;55.918;37.746;2024-01-15T07:16:57;21.05;;;13.35;;
23317;SDS011;11831;55.918;37.746;2024-01-15T07:19:23;18.33;;;12.73;;
23317;SDS011;11831;55.918;37.746;2024-01-15T07:21:50;20.33;;;13.65;;
23317;SDS011;11831;55.918;37.746;2024-01-15T07:24:16;21.62;;;13.57;;
23317;SDS011;11831;55.918;37.746;2024-01-15T07:26:42;19.85;;;13.70;;
23317;SDS011;11831;55.918;37.746;2024-01-15T07:29:09;20.15;;;12.55;;
23317;SDS011;11831;55.918;37.746;2024-01-15T07:31:35;17.98;;;12.52;;
23317;SDS011;11831;55.918;37.746;2024-01-15T07:34:02;21.00;;;13.98;;
23317;SDS011;11831;55.918;37.746;2024-01-15T07:36:28;14.40;;;10.10;;
23317;SDS011;11831;55.918;37.746;2024-01-15T07:38:55;22.85;;;13.30;;
23317;SDS011;11831;55.918;37.746;2024-01-15T07:41:21;19.10;;;13.23;;
23317;SDS011;11831;55.918;37.746;2024-01-15T07:43:48;21.02;;;13.65;;
23317;SDS011;11831;55.918;37.746;2024-01-15T07:46:14;21.02;;;13.13;;
23317;SDS011;11831;55.918;37.746;2024-01-15T07:48:40;22.52;;;13.27;;
23317;SDS011;11831;55.918;37.746;2024-01-15T07:51:07;20.05;;;14.00;;
23317;SDS011;11831;55.918;37.746;2024-01-15T07:53:33;19.58;;;13.45;;
23317;SDS011;11831;55.918;37.746;2024-01-15T07:55:59;21.67;;;13.60;;
23317;SDS011;11831;55.918;37.746;2024-01-15T07:58:26;19.48;;;14.10;;
23317;SDS011;11831;55.918;37.746;2024-01-15T08:00:53;18.12;;;12.50;;
23317;SDS011;11831;55.918;37.746;2024-01-15T08:03:19;22.45;;;14.35;;
23317;SDS011;11831;55.918;37.746;2024-01-15T08:05:46;23.35;;;13.60;;
23317;SDS011;11831;55.918;37.746;2024-01-15T08:08:12;20.00;;;13.80;;
23317;SDS011;11831;55.918;37.746;2024-01-15T08:10:39;19.83;;;13.32;;
23317;SDS011;11831;55.918;37.746;2024-01-15T08:13:05;19.33;;;13.02;;
23317;SDS011;11831;55.918;37.746;2024-01-15T08:15:35;22.50;;;14.98;;
23317;SDS011;11831;55.918;37.746;2024-01-15T08:18:01;21.05;;;13.85;;
23317;SDS011;11831;55.918;37.746;2024-01-15T08:20:28;20.92;;;14.05;;
23317;SDS011;11831;55.918;37.746;2024-01-15T08:22:55;21.50;;;14.23;;
23317;SDS011;11831;55.918;37.746;2024-01-15T08:25:21;21.65;;;13.82;;
23317;SDS011;11831;55.918;37.746;2024-01-15T08:27:47;19.80;;;13.98;;
23317;SDS011;11831;55.918;37.746;2024-01-15T08:30:14;21.95;;;14.27;;
23317;SDS011;11831;55.918;37.746;2024-01-15T08:32:40;21.60;;;14.20;;
23317;SDS011;11831;55.918;37.746;2024-01-15T08:35:08;24.17;;;14.95;;
23317;SDS011;11831;55.918;37.746;2024-01-15T08:37:35;22.50;;;13.10;;
23317;SDS011;11831;55.918;37.746;2024-01-15T08:40:01;20.92;;;14.18;;
23317;SDS011;11831;55.918;37.746;2024-01-15T08:42:29;21.95;;;13.65;;
23317;SDS011;11831;55.918;37.746;2024-01-15T08:44:56;21.20;;;14.02;;
23317;SDS011;11831;55.918;37.746;2024-01-15T08:47:22;21.52;;;13.20;;
23317;SDS011;11831;55.918;37.746;2024-01-15T08:49:48;21.10;;;13.85;;
23317;SDS011;11831;55.918;37.746;2024-01-15T08:52:15;18.73;;;13.70;;
23317;SDS011;11831;55.918;37.746;2024-01-15T08:54:41;21.92;;;14.10;;
23317;SDS011;11831;55.918;37.746;2024-01-15T08:57:08;16.23;;;10.18;;
23317;SDS011;11831;55.918;37.746;2024-01-15T08:59:34;21.00;;;13.60;;
23317;SDS011;11831;55.918;37.746;2024-01-15T09:02:00;21.85;;;14.82;;
23317;SDS011;11831;55.918;37.746;2024-01-15T09:04:27;22.02;;;15.25;;
23317;SDS011;11831;55.918;37.746;2024-01-15T09:06:53;22.95;;;15.18;;
23317;SDS011;11831;55.918;37.746;2024-01-15T09:09:19;23.00;;;15.27;;
23317;SDS011;11831;55.918;37.746;2024-01-15T09:11:46;21.12;;;13.57;;
23317;SDS011;11831;55.918;37.746;2024-01-15T09:14:12;16.52;;;10.40;;
23317;SDS011;11831;55.918;37.746;2024-01-15T09:16:39;20.73;;;14.68;;
23317;SDS011;11831;55.918;37.746;2024-01-15T09:19:05;20.62;;;13.48;;
23317;SDS011;11831;55.918;37.746;2024-01-15T09:21:32;23.02;;;14.20;;
23317;SDS011;11831;55.918;37.746;2024-01-15T09:23:58;21.27;;;13.82;;
23317;SDS011;11831;55.918;37.746;2024-01-15T09:26:25;20.55;;;14.07;;
23317;SDS011;11831;55.918;37.746;2024-01-15T09:28:51;21.35;;;13.23;;
23317;SDS011;11831;55.918;37.746;2024-01-15T09:31:18;20.40;;;13.95;;
23317;SDS011;11831;55.918;37.746;2024-01-15T09:33:45;20.30;;;14.45;;
23317;SDS011;11831;55.918;37.746;2024-01-15T09:36:12;19.50;;;13.10;;
23317;SDS011;11831;55.918;37.746;2024-01-15T09:38:40;19.70;;;13.93;;
23317;SDS011;11831;55.918;37.746;2024-01-15T09:41:07;19.92;;;14.13;;
23317;SDS011;11831;55.918;37.746;2024-01-15T09:43:34;22.10;;;14.02;;
23317;SDS011;11831;55.918;37.746;2024-01-15T09:46:03;19.95;;;13.43;;
23317;SDS011;11831;55.918;37.746;2024-01-15T09:48:30;18.85;;;13.70;;
23317;SDS011;11831;55.918;37.746;2024-01-15T09:51:01;19.27;;;13.43;;
23317;SDS011;11831;55.918;37.746;2024-01-15T09:53:28;19.00;;;12.48;;
23317;SDS011;11831;55.918;37.746;2024-01-15T09:55:54;20.12;;;13.07;;
23317;SDS011;11831;55.918;37.746;2024-01-15T09:58:21;21.17;;;13.05;;
23317;SDS011;11831;55.918;37.746;2024-01-15T10:00:48;20.15;;;13.48;;
23317;SDS011;11831;55.918;37.746;2024-01-15T10:03:16;18.25;;;11.90;;
23317;SDS011;11831;55.918;37.746;2024-01-15T10:05:43;23.12;;;14.52;;
23317;SDS011;11831;55.918;37.746;2024-01-15T10:08:10;21.95;;;14.30;;
23317;SDS011;11831;55.918;37.746;2024-01-15T10:10:37;19.87;;;14.00;;
23317;SDS011;11831;55.918;37.746;2024-01-15T10:13:04;20.65;;;14.52;;
23317;SDS011;11831;55.918;37.746;2024-01-15T10:15:37;19.08;;;13.80;;
23317;SDS011;11831;55.918;37.746;2024-01-15T10:18:05;22.17;;;13.98;;
23317;SDS011;11831;55.918;37.746;2024-01-15T10:20:32;23.67;;;14.98;;
23317;SDS011;11831;55.918;37.746;2024-01-15T10:22:59;21.17;;;13.60;;
23317;SDS011;11831;55.918;37.746;2024-01-15T10:25:25;19.80;;;14.20;;
23317;SDS011;11831;55.918;37.746;2024-01-15T10:27:59;22.13;;;14.52;;
23317;SDS011;11831;55.918;37.746;2024-01-15T10:30:27;20.50;;;13.90;;
23317;SDS011;11831;55.918;37.746;2024-01-15T10:32:57;21.37;;;14.60;;
23317;SDS011;11831;55.918;37.746;2024-01-15T10:35:34;23.60;;;15.38;;
23317;SDS011;11831;55.918;37.746;2024-01-15T10:38:01;20.85;;;14.18;;
23317;SDS011;11831;55.918;37.746;2024-01-15T10:40:29;20.75;;;14.68;;
23317;SDS011;11831;55.918;37.746;2024-01-15T10:42:55;23.83;;;14.85;;
23317;SDS011;11831;55.918;37.746;2024-01-15T10:45:22;22.27;;;14.77;;
23317;SDS011;11831;55.918;37.746;2024-01-15T10:47:48;20.25;;;13.43;;
23317;SDS011;11831;55.918;37.746;2024-01-15T10:50:15;21.42;;;13.75;;
23317;SDS011;11831;55.918;37.746;2024-01-15T10:52:42;22.37;;;14.73;;
23317;SDS011;11831;55.918;37.746;2024-01-15T10:55:11;21.40;;;14.48;;
23317;SDS011;11831;55.918;37.746;2024-01-15T10:57:38;21.50;;;14.05;;
23317;SDS011;11831;55.918;37.746;2024-01-15T11:00:05;21.98;;;13.93;;
23317;SDS011;11831;55.918;37.746;2024-01-15T11:02:33;19.52;;;13.80;;
23317;SDS011;11831;55.918;37.746;2024-01-15T11:05:02;21.75;;;14.18;;
23317;SDS011;11831;55.918;37.746;2024-01-15T11:07:30;21.73;;;14.65;;
23317;SDS011;11831;55.918;37.746;2024-01-15T11:09:57;24.02;;;14.65;;
23317;SDS011;11831;55.918;37.746;2024-01-15T11:12:24;20.48;;;14.13;;
23317;SDS011;11831;55.918;37.746;2024-01-15T11:14:51;21.65;;;14.60;;
23317;SDS011;11831;55.918;37.746;2024-01-15T11:17:20;20.40;;;14.20;;
23317;SDS011;11831;55.918;37.746;2024-01-15T11:19:47;20.00;;;13.90;;
23317;SDS011;11831;55.918;37.746;2024-01-15T11:24:56;22.67;;;14.70;;
23317;SDS011;11831;55.918;37.746;2024-01-15T11:27:39;22.10;;;14.57;;
23317;SDS011;11831;55.918;37.746;2024-01-15T11:30:10;21.12;;;14.07;;
23317;SDS011;11831;55.918;37.746;2024-01-15T11:32:38;21.08;;;14.07;;
23317;SDS011;11831;55.918;37.746;2024-01-15T11:35:12;21.90;;;13.95;;
23317;SDS011;11831;55.918;37.746;2024-01-15T11:40:36;21.00;;;14.10;;
23317;SDS011;11831;55.918;37.746;2024-01-15T11:43:04;19.80;;;14.57;;
23317;SDS011;11831;55.918;37.746;2024-01-15T11:45:32;21.92;;;14.52;;
23317;SDS011;11831;55.918;37.746;2024-01-15T11:50:32;18.70;;;13.38;;
23317;SDS011;11831;55.918;37.746;2024-01-15T11:53:01;20.00;;;13.62;;
23317;SDS011;11831;55.918;37.746;2024-01-15T11:55:30;21.83;;;14.32;;
23317;SDS011;11831;55.918;37.746;2024-01-15T11:58:01;21.02;;;15.40;;
23317;SDS011;11831;55.918;37.746;2024-01-15T12:00:33;23.30;;;15.10;;
23317;SDS011;11831;55.918;37.746;2024-01-15T12:03:00;24.40;;;14.57;;
23317;SDS011;11831;55.918;37.746;2024-01-15T12:05:28;21.42;;;13.32;;
23317;SDS011;11831;55.918;37.746;2024-01-15T12:07:54;22.25;;;15.00;;
23317;SDS011;11831;55.918;37.746;2024-01-15T12:10:21;21.45;;;13.95;;
23317;SDS011;11831;55.918;37.746;2024-01-15T12:13:00;23.10;;;14.60;;
23317;SDS011;11831;55.918;37.746;2024-01-15T12:15:31;22.08;;;14.15;;
23317;SDS011;11831;55.918;37.746;2024-01-15T12:17:59;19.90;;;13.62;;
23317;SDS011;11831;55.918;37.746;2024-01-15T12:20:28;20.48;;;14.20;;
23317;SDS011;11831;55.918;37.746;2024-01-15T12:22:56;24.83;;;13.62;;
23317;SDS011;11831;55.918;37.746;2024-01-15T12:25:23;19.83;;;13.20;;
23317;SDS011;11831;55.918;37.746;2024-01-15T12:27:53;21.17;;;13.90;;
23317;SDS011;11831;55.918;37.746;2024-01-15T12:30:20;25.10;;;14.30;;
23317;SDS011;11831;55.918;37.746;2024-01-15T12:32:47;22.25;;;13.80;;
23317;SDS011;11831;55.918;37.746;2024-01-15T12:35:14;21.77;;;13.40;;
23317;SDS011;11831;55.918;37.746;2024-01-15T12:37:41;19.95;;;13.62;;
23317;SDS011;11831;55.918;37.746;2024-01-15T12:40:09;18.12;;;12.90;;
23317;SDS011;11831;55.918;37.746;2024-01-15T12:42:36;19.12;;;12.13;;
23317;SDS011;11831;55.918;37.746;2024-01-15T12:45:05;19.83;;;12.77;;
23317;SDS011;11831;55.918;37.746;2024-01-15T12:47:32;18.10;;;12.73;;
23317;SDS011;11831;55.918;37.746;2024-01-15T12:49:59;22.05;;;12.98;;
23317;SDS011;11831;55.918;37.746;2024-01-15T12:52:26;22.20;;;13.57;;
23317;SDS011;11831;55.918;37.746;2024-01-15T12:54:54;20.55;;;13.55;;
23317;SDS011;11831;55.918;37.746;2024-01-15T12:57:20;21.17;;;13.98;;
23317;SDS011;11831;55.918;37.746;2024-01-15T12:59:47;19.37;;;12.20;;
23317;SDS011;11831;55.918;37.746;2024-01-15T13:02:16;21.80;;;13.77;;
23317;SDS011;11831;55.918;37.746;2024-01-15T13:04:43;21.80;;;13.70;;
23317;SDS011;11831;55.918;37.746;2024-01-15T13:07:10;19.83;;;12.63;;
23317;SDS011;11831;55.918;37.746;2024-01-15T13:09:36;20.27;;;12.60;;
23317;SDS011;11831;55.918;37.746;2024-01-15T13:12:03;21.20;;;13.65;;
23317;SDS011;11831;55.918;37.746;2024-01-15T13:14:29;22.13;;;13.40;;
23317;SDS011;11831;55.918;37.746;2024-01-15T13:16:56;22.85;;;15.18;;
23317;SDS011;11831;55.918;37.746;2024-01-15T13:19:24;20.45;;;13.13;;
23317;SDS011;11831;55.918;37.746;2024-01-15T13:21:51;17.73;;;11.77;;
23317;SDS011;11831;55.918;37.746;2024-01-15T13:24:19;20.37;;;13.18;;
23317;SDS011;11831;55.918;37.746;2024-01-15T13:26:47;19.00;;;12.93;;
23317;SDS011;11831;55.918;37.746;2024-01-15T13:29:14;22.50;;;13.55;;
23317;SDS011;11831;55.918;37.746;2024-01-15T13:31:41;21.55;;;13.23;;
23317;SDS011;11831;55.918;37.746;2024-01-15T13:34:08;20.50;;;13.10;;
23317;SDS011;11831;55.918;37.746;2024-01-15T13:36:35;19.33;;;13.15;;
23317;SDS011;11831;55.918;37.746;2024-01-15T13:39:04;20.73;;;13.85;;
23317;SDS011;11831;55.918;37.746;2024-01-15T13:41:35;21.37;;;13.80;;
23317;SDS011;11831;55.918;37.746;2024-01-15T13:44:02;22.08;;;13.98;;
23317;SDS011;11831;55.918;37.746;2024-01-15T13:46:28;22.13;;;13.00;;
23317;SDS011;11831;55.918;37.746;2024-01-15T13:48:59;21.52;;;13.82;;
23317;SDS011;11831;55.918;37.746;2024-01-15T13:51:26;21.67;;;13.52;;
23317;SDS011;11831;55.918;37.746;2024-01-15T13:53:52;17.23;;;12.15;;
23317;SDS011;11831;55.918;37.746;2024-01-15T13:56:19;19.98;;;13.27;;
23317;SDS011;11831;55.918;37.746;2024-01-15T13:58:45;20.37;;;13.45;;
23317;SDS011;11831;55.918;37.746;2024-01-15T14:01:12;20.52;;;13.85;;
23317;SDS011;11831;55.918;37.746;2024-01-15T14:03:38;20.83;;;14.30;;
23317;SDS011;11831;55.918;37.746;2024-01-15T14:06:05;19.92;;;13.70;;
23317;SDS011;11831;55.918;37.746;2024-01-15T14:08:35;20.15;;;13.40;;
23317;SDS011;11831;55.918;37.746;2024-01-15T14:11:03;23.80;;;13.57;;
23317;SDS011;11831;55.918;37.746;2024-01-15T14:13:32;19.58;;;13.43;;
23317;SDS011;11831;55.918;37.746;2024-01-15T14:15:59;19.95;;;12.73;;
23317;SDS011;11831;55.918;37.746;2024-01-15T14:18:26;20.60;;;13.82;;